Time;durP1;ratioP1;P1;durP2;ratioP2;P2;SDS_P1;SDS_P2;PMS_P1;PMS_P2;Temp;Humidity;BMP_temperature;BMP_pressure;BME280_temperature;BME280_humidity;BME280_pressure;Samples;Min_cycle;Max_cycle;Signal;HPM_P1;HPM_P2
2022/09/14 00:00:56;;;;;;;5.35;1.55;;;;;;;21.77;54.42;99482.28;5116039;28;20871;-63
2022/09/14 00:03:24;;;;;;;4.45;1.17;;;;;;;21.73;54.04;99473.81;5104311;28;21242;-63
2022/09/14 00:05:51;;;;;;;3.17;1.60;;;;;;;21.68;54.59;99463.72;5115889;28;20047;-63
2022/09/14 00:08:22;;;;;;;5.22;1.60;;;;;;;21.64;54.06;99460.09;5115913;28;20056;-63
2022/09/14 00:10:52;;;;;;;4.25;1.80;;;;;;;21.56;53.78;99457.72;5116052;28;20044;-63
2022/09/14 00:13:22;;;;;;;2.83;1.58;;;;;;;21.46;53.84;99460.22;5115715;28;20415;-63
2022/09/14 00:15:50;;;;;;;3.42;1.40;;;;;;;21.43;53.88;99458.22;5116109;28;20052;-63
2022/09/14 00:18:18;;;;;;;4.13;1.30;;;;;;;21.41;53.68;99459.81;5103307;28;20047;-62
2022/09/14 00:20:45;;;;;;;3.03;1.42;;;;;;;21.37;53.96;99462.66;5115375;28;20054;-63
2022/09/14 00:23:13;;;;;;;3.90;1.38;;;;;;;21.29;54.15;99456.25;5127491;27;20055;-63
2022/09/14 00:25:48;;;;;;;2.70;1.40;;;;;;;21.32;53.92;99451.78;5136135;27;20047;-62
2022/09/14 00:28:28;;;;;;;3.33;1.23;;;;;;;21.27;54.41;99455.03;5135830;27;20051;-62
2022/09/14 00:30:56;;;;;;;3.33;1.35;;;;;;;21.23;54.43;99454.22;5135892;27;20479;-63
2022/09/14 00:33:24;;;;;;;3.92;1.45;;;;;;;21.20;54.42;99443.75;5105206;27;20072;-63
2022/09/14 00:35:54;;;;;;;2.72;1.00;;;;;;;21.17;55.14;99445.38;5115174;28;20407;-63
2022/09/14 00:38:22;;;;;;;3.15;1.30;;;;;;;21.16;55.36;99445.78;5115410;28;20059;-63
2022/09/14 00:40:58;;;;;;;3.72;1.13;;;;;;;21.15;55.16;99447.81;5115729;28;20051;-63
2022/09/14 00:43:25;;;;;;;3.72;1.15;;;;;;;21.12;55.62;99442.94;5115299;28;20062;-62
2022/09/14 00:45:58;;;;;;;4.35;1.10;;;;;;;21.09;55.72;99438.94;5115223;28;20055;-63
2022/09/14 00:48:28;;;;;;;2.90;1.05;;;;;;;21.05;55.57;99426.81;5102011;28;20059;-63
2022/09/14 00:50:56;;;;;;;3.13;1.02;;;;;;;21.03;55.45;99431.28;5093957;28;20043;-64
2022/09/14 00:53:24;;;;;;;3.95;1.20;;;;;;;20.99;55.41;99425.63;5095021;28;20512;-63
2022/09/14 00:55:57;;;;;;;3.67;1.33;;;;;;;20.95;55.33;99424.03;5094784;28;20063;-63
2022/09/14 00:58:24;;;;;;;3.30;1.20;;;;;;;20.94;55.36;99423.22;5094842;28;20052;-63
2022/09/14 01:00:53;;;;;;;1.65;0.98;;;;;;;20.90;55.41;99418.81;5094317;28;20047;-64
2022/09/14 01:03:21;;;;;;;3.72;1.20;;;;;;;20.86;55.84;99407.50;5110816;28;20055;-63
2022/09/14 01:06:01;;;;;;;3.60;1.10;;;;;;;20.82;55.69;99413.16;5114526;28;20063;-63
2022/09/14 01:08:43;;;;;;;4.55;1.17;;;;;;;20.79;55.65;99416.00;5114917;28;20066;-63
2022/09/14 01:11:23;;;;;;;4.00;1.23;;;;;;;20.77;55.60;99413.59;5115057;28;20052;-63
2022/09/14 01:13:58;;;;;;;3.92;1.05;;;;;;;20.73;54.90;99407.13;5114668;28;20056;-63
2022/09/14 01:16:36;;;;;;;4.03;1.40;;;;;;;20.66;55.20;99407.97;5109964;28;20052;-63
2022/09/14 01:19:11;;;;;;;5.38;1.20;;;;;;;20.66;55.54;99412.81;5094296;28;20052;-63
2022/09/14 01:21:42;;;;;;;3.55;1.20;;;;;;;20.65;55.48;99409.19;5093092;28;20059;-62
2022/09/14 01:24:18;;;;;;;8.38;1.50;;;;;;;20.64;54.82;99409.56;5127685;27;20067;-63
2022/09/14 01:27:21;;;;;;;3.22;1.05;;;;;;;20.61;54.74;99405.56;5104352;28;20404;-62
2022/09/14 01:29:57;;;;;;;2.67;1.17;;;;;;;20.62;54.74;99400.69;5078554;28;20055;-62
2022/09/14 01:32:29;;;;;;;4.25;1.30;;;;;;;20.61;54.82;99394.22;5094083;28;20055;-59
2022/09/14 01:35:05;;;;;;;7.60;1.60;;;;;;;20.63;55.10;99393.81;5094264;28;20048;-59
2022/09/14 01:37:38;;;;;;;3.38;1.10;;;;;;;20.63;56.18;99396.66;5093752;28;20071;-59
2022/09/14 01:40:14;;;;;;;4.80;1.20;;;;;;;20.61;55.97;99388.56;5095089;28;20052;-59
2022/09/14 01:42:54;;;;;;;2.65;0.88;;;;;;;20.62;55.58;99395.88;5113996;28;20048;-59
2022/09/14 01:45:26;;;;;;;4.72;1.23;;;;;;;20.62;56.23;99389.38;5113944;28;20054;-59
2022/09/14 01:47:57;;;;;;;4.20;1.25;;;;;;;20.56;56.19;99380.50;5095360;28;20048;-59
2022/09/14 01:50:30;;;;;;;4.53;1.52;;;;;;;20.56;57.67;99379.69;5093374;28;20051;-59
2022/09/14 01:53:29;;;;;;;2.58;1.10;;;;;;;20.54;57.15;99380.09;5093762;28;20066;-59
2022/09/14 01:56:00;;;;;;;6.28;1.48;;;;;;;20.51;57.69;99377.25;5093702;28;20052;-59
2022/09/14 01:58:36;;;;;;;2.70;1.10;;;;;;;20.49;57.44;99374.84;5094528;28;20071;-59
2022/09/14 02:01:09;;;;;;;4.22;1.25;;;;;;;20.48;57.05;99373.25;5093132;28;20063;-59
2022/09/14 02:03:41;;;;;;;4.57;1.20;;;;;;;20.45;57.58;99368.38;5093347;28;20047;-59
2022/09/14 02:06:15;;;;;;;5.28;1.63;;;;;;;20.43;57.26;99376.47;5093601;28;20067;-60
2022/09/14 02:08:43;;;;;;;2.70;1.13;;;;;;;20.43;58.15;99379.28;5093246;28;20056;-59
2022/09/14 02:11:10;;;;;;;3.67;1.30;;;;;;;20.43;57.61;99382.13;5092319;28;20064;-59
2022/09/14 02:13:38;;;;;;;3.53;1.15;;;;;;;20.44;56.50;99375.28;5110788;28;20060;-58
2022/09/14 02:16:07;;;;;;;3.90;1.20;;;;;;;20.42;56.56;99369.22;5113293;28;20424;-59
2022/09/14 02:18:35;;;;;;;4.38;1.42;;;;;;;20.39;56.71;99367.19;5113262;28;20407;-59
2022/09/14 02:24:04;;;;;;;4.50;1.35;;;;;;;20.36;55.86;99359.53;5106320;28;20411;-59
2022/09/14 02:26:42;;;;;;;6.25;1.50;;;;;;;20.27;56.21;99372.06;5099585;28;20055;-59
2022/09/14 02:29:10;;;;;;;5.97;1.35;;;;;;;20.29;55.83;99363.19;5092969;28;20060;-62
2022/09/14 02:32:08;;;;;;;5.25;1.48;;;;;;;20.25;55.95;99368.84;5093026;28;20412;-59
2022/09/14 02:34:52;;;;;;;5.75;1.08;;;;;;;20.23;55.46;99362.00;5099244;28;20044;-59
2022/09/14 02:37:23;;;;;;;6.43;1.45;;;;;;;20.23;55.12;99364.81;5093101;28;20070;-59
2022/09/14 02:40:10;;;;;;;5.30;1.70;;;;;;;20.23;54.79;99362.78;5092774;28;20389;-59
2022/09/14 02:42:47;;;;;;;4.85;1.17;;;;;;;20.22;54.51;99351.88;5113149;28;20070;-58
2022/09/14 02:45:21;;;;;;;4.10;1.15;;;;;;;20.21;54.89;99342.59;5112746;28;20055;-59
2022/09/14 02:47:56;;;;;;;4.63;1.27;;;;;;;20.22;54.01;99344.22;5112909;28;20054;-59
2022/09/14 02:50:39;;;;;;;4.97;1.30;;;;;;;20.21;54.45;99336.94;5112990;28;20051;-60
2022/09/14 02:53:12;;;;;;;4.47;1.23;;;;;;;20.23;54.85;99336.53;5113004;28;20051;-59
2022/09/14 02:55:52;;;;;;;5.82;1.23;;;;;;;20.21;54.62;99336.94;5091955;28;20060;-59
2022/09/14 02:58:20;;;;;;;5.15;1.25;;;;;;;20.22;55.70;99332.91;5092686;28;20051;-59
2022/09/14 03:00:49;;;;;;;4.25;1.30;;;;;;;20.23;55.95;99340.16;5092660;28;20052;-59
2022/09/14 03:03:24;;;;;;;6.75;1.55;;;;;;;20.17;55.84;99333.31;5092362;28;20052;-59
2022/09/14 03:05:52;;;;;;;4.15;1.20;;;;;;;20.17;56.46;99335.34;5092161;28;20397;-60
2022/09/14 03:08:22;;;;;;;5.00;1.55;;;;;;;20.16;57.00;99330.88;5092456;28;20058;-59
2022/09/14 03:10:50;;;;;;;5.13;1.35;;;;;;;20.15;58.24;99330.09;5108275;28;20087;-59
2022/09/14 03:13:17;;;;;;;3.17;1.45;;;;;;;20.12;58.63;99328.09;5116095;28;20047;-59
2022/09/14 03:15:48;;;;;;;2.40;1.08;;;;;;;20.11;58.94;99332.13;5116673;28;20051;-59
2022/09/14 03:18:25;;;;;;;3.45;1.40;;;;;;;20.11;58.18;99329.28;5116174;28;20051;-59
2022/09/14 03:23:40;;;;;;;4.80;1.33;;;;;;;20.04;58.76;99327.28;5027969;28;20053;-59
2022/09/14 03:26:13;;;;;;;4.35;1.15;;;;;;;20.01;58.63;99330.13;5045991;28;20052;-62
2022/09/14 03:28:41;;;;;;;5.03;1.80;;;;;;;19.97;59.13;99321.66;5096496;28;20052;-59
2022/09/14 03:31:10;;;;;;;4.20;1.40;;;;;;;19.94;59.54;99322.47;5095309;28;20058;-61
2022/09/14 03:33:40;;;;;;;5.78;1.75;;;;;;;19.92;59.33;99326.91;5104189;28;20044;-62
2022/09/14 03:36:12;;;;;;;3.05;1.20;;;;;;;19.86;59.40;99315.19;5114767;28;20056;-62
2022/09/14 03:38:43;;;;;;;4.07;1.23;;;;;;;19.84;60.20;99315.63;5095996;28;20508;-62
2022/09/14 03:41:11;;;;;;;5.22;1.15;;;;;;;19.81;59.88;99321.28;5096172;28;20052;-63
2022/09/14 03:43:38;;;;;;;5.32;1.90;;;;;;;19.77;61.19;99317.66;5095708;28;20048;-64
2022/09/14 03:46:07;;;;;;;5.07;1.40;;;;;;;19.70;60.51;99314.78;5095033;28;20048;-63
2022/09/14 03:48:34;;;;;;;5.68;1.40;;;;;;;19.67;60.87;99311.59;5096515;28;20048;-63
2022/09/14 03:51:03;;;;;;;3.35;1.40;;;;;;;19.68;61.58;99309.56;5095850;28;20052;-62
2022/09/14 03:53:31;;;;;;;7.32;1.55;;;;;;;19.67;60.68;99308.75;5095714;28;20052;-62
2022/09/14 03:55:59;;;;;;;4.03;1.30;;;;;;;19.66;61.61;99306.31;5095469;28;20079;-62
2022/09/14 03:58:26;;;;;;;3.88;1.38;;;;;;;19.65;61.09;99307.53;5095919;28;20432;-63
2022/09/14 04:00:53;;;;;;;4.50;1.40;;;;;;;19.61;61.58;99303.91;5096438;28;20060;-63
2022/09/14 04:03:21;;;;;;;4.90;1.50;;;;;;;19.59;61.54;99300.66;5098694;28;20071;-62
2022/09/14 04:05:55;;;;;;;6.10;1.58;;;;;;;19.61;61.42;99301.06;5112015;28;20055;-62
2022/09/14 04:08:24;;;;;;;3.30;1.45;;;;;;;19.57;61.52;99291.78;5109614;28;20052;-62
2022/09/14 04:10:51;;;;;;;4.35;1.35;;;;;;;19.54;62.12;99299.06;5112474;28;20047;-63
2022/09/14 04:13:18;;;;;;;5.63;1.52;;;;;;;19.51;61.83;99297.06;5115523;28;20051;-63
2022/09/14 04:15:56;;;;;;;4.60;1.50;;;;;;;19.49;63.09;99299.47;5115834;28;20467;-63
2022/09/14 04:18:24;;;;;;;6.32;2.13;;;;;;;19.46;63.17;99303.91;5114102;28;20511;-62
2022/09/14 04:20:56;;;;;;;4.78;1.65;;;;;;;19.45;63.46;99298.66;5115677;28;20047;-63
2022/09/14 04:23:25;;;;;;;4.13;1.55;;;;;;;19.44;63.83;99302.69;5115695;28;20051;-63
2022/09/14 04:25:53;;;;;;;4.13;1.48;;;;;;;19.40;64.35;99299.06;5115355;28;20051;-63
2022/09/14 04:28:22;;;;;;;5.63;1.80;;;;;;;19.38;64.51;99302.31;5115555;28;20492;-63
2022/09/14 04:30:59;;;;;;;12.68;6.45;;;;;;;19.34;64.55;99297.84;5114886;28;20043;-61
2022/09/14 04:33:30;;;;;;;11.00;4.93;;;;;;;19.31;64.43;99296.63;5094723;28;20052;-63
2022/09/14 04:36:00;;;;;;;8.63;3.70;;;;;;;19.28;64.26;99297.47;5094832;28;20059;-63
2022/09/14 04:38:29;;;;;;;13.48;6.95;;;;;;;19.22;65.50;99305.50;5094954;28;20400;-62
2022/09/14 04:40:57;;;;;;;11.27;5.45;;;;;;;19.17;65.40;99313.56;5094616;28;20511;-63
2022/09/14 04:43:25;;;;;;;9.32;4.30;;;;;;;19.16;66.02;99309.94;5096183;28;20044;-62
2022/09/14 04:45:53;;;;;;;7.38;3.28;;;;;;;19.12;65.28;99309.13;5093838;28;20051;-62
2022/09/14 04:48:20;;;;;;;5.32;2.20;;;;;;;19.05;65.68;99307.09;5094372;28;20393;-63
2022/09/14 04:50:47;;;;;;;8.98;3.10;;;;;;;19.04;66.96;99302.66;5094285;28;20048;-63
2022/09/14 04:53:15;;;;;;;4.63;2.20;;;;;;;19.01;66.97;99299.84;5094139;28;20055;-62
2022/09/14 04:55:43;;;;;;;4.85;1.80;;;;;;;18.97;67.40;99297.00;5094525;28;20052;-62
2022/09/14 04:58:11;;;;;;;7.80;2.60;;;;;;;18.96;67.39;99295.41;5092266;28;20064;-62
2022/09/14 05:00:38;;;;;;;6.57;2.00;;;;;;;18.92;66.25;99297.41;5098683;28;20062;-62
2022/09/14 05:03:05;;;;;;;4.70;2.00;;;;;;;18.90;66.92;99305.47;5108084;28;20055;-62
2022/09/14 05:05:35;;;;;;;2.85;1.55;;;;;;;18.87;67.26;99294.97;5108527;28;20059;-62
2022/09/14 05:08:03;;;;;;;4.82;2.00;;;;;;;18.87;67.22;99297.78;5110798;28;20044;-60
2022/09/14 05:10:30;;;;;;;6.72;2.20;;;;;;;18.83;67.26;99299.78;5101445;28;20381;-62
2022/09/14 05:12:59;;;;;;;6.63;2.10;;;;;;;18.84;67.03;99304.25;5100022;28;20056;-62
2022/09/14 05:15:26;;;;;;;5.33;2.30;;;;;;;18.81;67.13;99305.81;5105690;28;20052;-62
2022/09/14 05:17:53;;;;;;;5.00;1.85;;;;;;;18.78;67.72;99298.16;5095857;28;20486;-62
2022/09/14 05:20:20;;;;;;;5.55;2.13;;;;;;;18.76;67.87;99292.09;5107169;28;20415;-62
2022/09/14 05:22:50;;;;;;;5.90;2.33;;;;;;;18.74;67.35;99300.16;5109527;28;20050;-63
2022/09/14 05:25:17;;;;;;;;;;;;;;;18.67;67.86;99298.13;5103579;28;20051;-62
2022/09/14 05:27:44;;;;;;;4.50;2.20;;;;;;;18.66;68.54;99293.66;5102267;28;20307;-62
2022/09/14 05:30:13;;;;;;;5.78;1.88;;;;;;;18.65;67.69;99289.25;5100547;28;20495;-63
2022/09/14 05:32:40;;;;;;;5.88;1.80;;;;;;;18.67;67.56;99284.00;5097927;28;20043;-62
2022/09/14 05:35:08;;;;;;;3.90;1.80;;;;;;;18.65;68.51;99294.88;5102165;28;20047;-62
2022/09/14 05:37:36;;;;;;;5.68;2.22;;;;;;;18.62;67.91;99287.19;5114379;28;20059;-63
2022/09/14 05:40:04;;;;;;;4.28;1.98;;;;;;;18.60;68.20;99291.63;5100614;28;20515;-62
2022/09/14 05:42:31;;;;;;;3.80;1.87;;;;;;;18.59;68.01;99295.66;5108422;28;20052;-62
2022/09/14 05:44:59;;;;;;;5.25;2.00;;;;;;;18.61;68.40;99294.06;5102528;28;20819;-62
2022/09/14 05:47:31;;;;;;;5.05;2.00;;;;;;;18.62;68.69;99283.59;5113882;28;20492;-63
2022/09/14 05:49:58;;;;;;;6.60;2.25;;;;;;;18.64;69.00;99287.63;5112662;28;20962;-63
2022/09/14 05:52:25;;;;;;;3.55;2.22;;;;;;;18.65;68.18;99292.06;5113295;28;20055;-63
2022/09/14 05:54:52;;;;;;;4.28;2.20;;;;;;;18.67;68.78;99286.84;5126226;27;20506;-63
2022/09/14 05:57:19;;;;;;;4.88;1.90;;;;;;;18.67;68.38;99286.84;5110686;27;20055;-62
2022/09/14 05:59:47;;;;;;;4.38;1.80;;;;;;;18.67;68.87;99280.38;5113937;28;20055;-63
2022/09/14 06:02:14;;;;;;;5.65;2.17;;;;;;;18.65;68.30;99286.44;5112693;28;20055;-63
2022/09/14 06:04:43;;;;;;;6.63;2.50;;;;;;;18.68;67.92;99276.34;5113218;28;20047;-63
2022/09/14 06:07:10;;;;;;;4.68;1.65;;;;;;;18.70;68.47;99288.03;5112633;28;20062;-62
2022/09/14 06:09:37;;;;;;;5.43;2.40;;;;;;;18.67;68.56;99280.38;5112158;28;20056;-62
2022/09/14 06:12:05;;;;;;;6.18;2.15;;;;;;;18.71;68.47;99286.84;5090902;28;20055;-62
2022/09/14 06:14:32;;;;;;;5.53;1.83;;;;;;;18.73;68.03;99281.63;5092580;28;20051;-63
2022/09/14 06:17:00;;;;;;;5.22;2.00;;;;;;;18.72;68.37;99293.28;5105419;28;20074;-63
2022/09/14 06:19:27;;;;;;;5.68;2.00;;;;;;;18.72;67.69;99288.44;5097424;28;20051;-61
2022/09/14 06:21:56;;;;;;;6.13;2.47;;;;;;;18.70;68.10;99290.06;5097507;28;20059;-61
2022/09/14 06:24:27;;;;;;;3.97;2.57;;;;;;;18.71;68.59;99298.13;5100986;27;20043;-61
2022/09/14 06:26:54;;;;;;;5.15;2.80;;;;;;;18.66;68.39;99288.03;5105651;28;20485;-62
2022/09/14 06:29:22;;;;;;;4.20;1.83;;;;;;;18.60;68.04;99292.44;5092564;28;20051;-61
2022/09/14 06:31:49;;;;;;;6.97;2.65;;;;;;;18.60;68.63;99298.06;5100808;28;20056;-62
2022/09/14 06:34:16;;;;;;;6.30;2.15;;;;;;;18.57;68.82;99292.44;5101750;28;20047;-62
2022/09/14 06:36:44;;;;;;;5.90;2.00;;;;;;;18.58;68.08;99294.88;5107149;28;20059;-62
2022/09/14 06:39:13;;;;;;;4.75;2.22;;;;;;;18.57;68.70;99293.25;5090954;28;20060;-60
2022/09/14 06:41:40;;;;;;;7.13;2.30;;;;;;;18.58;68.02;99294.03;5093939;28;20043;-62
2022/09/14 06:44:07;;;;;;;6.95;2.50;;;;;;;18.56;68.21;99294.47;5093981;28;20048;-62
2022/09/14 06:46:35;;;;;;;3.47;2.13;;;;;;;18.53;68.16;99295.25;5094458;28;20047;-61
2022/09/14 06:49:07;;;;;;;4.65;2.22;;;;;;;18.55;68.85;99292.03;5104614;28;20051;-62
2022/09/14 06:51:36;;;;;;;4.57;2.40;;;;;;;18.56;68.60;99296.44;5102884;28;20051;-61
2022/09/14 06:54:05;;;;;;;4.63;2.20;;;;;;;18.57;69.45;99290.44;5106367;28;20063;-62
2022/09/14 06:56:35;;;;;;;3.63;2.07;;;;;;;18.58;69.65;99300.50;5100688;28;20051;-62
2022/09/14 06:59:03;;;;;;;5.93;2.13;;;;;;;18.61;68.92;99299.69;5099024;28;20243;-61
2022/09/14 07:01:30;;;;;;;5.90;2.42;;;;;;;18.64;68.69;99304.53;5097545;28;20063;-62
2022/09/14 07:04:00;;;;;;;5.72;2.15;;;;;;;18.65;68.54;99294.88;5097992;28;20056;-62
2022/09/14 07:06:29;;;;;;;4.75;1.90;;;;;;;18.67;68.83;99309.41;5093257;28;20051;-62
2022/09/14 07:08:56;;;;;;;;;;;;;;;18.59;69.73;99296.47;5096749;28;20416;-62
2022/09/14 07:11:26;;;;;;;5.10;2.30;;;;;;;18.62;69.49;99306.94;5088709;28;19928;-62
2022/09/14 07:13:57;;;;;;;4.05;2.03;;;;;;;18.65;68.66;99311.81;5094562;28;20067;-62
2022/09/14 07:16:25;;;;;;;4.90;2.20;;;;;;;18.62;69.12;99306.94;5099068;28;20060;-62
2022/09/14 07:18:53;;;;;;;5.07;2.38;;;;;;;18.66;69.38;99310.59;5094929;28;20059;-62
2022/09/14 07:21:20;;;;;;;7.45;2.70;;;;;;;18.69;69.52;99306.19;5094313;28;20051;-62
2022/09/14 07:23:48;;;;;;;4.72;2.38;;;;;;;18.66;69.86;99313.41;5097265;28;20126;-62
2022/09/14 07:26:17;;;;;;;3.45;2.05;;;;;;;18.65;69.73;99309.00;5089809;28;20052;-62
2022/09/14 07:28:46;;;;;;;4.77;2.50;;;;;;;18.68;69.26;99307.38;5090346;28;20059;-61
2022/09/14 07:31:17;;;;;;;4.70;2.05;;;;;;;18.61;68.31;99315.81;5097347;28;20052;-62
2022/09/14 07:33:45;;;;;;;5.82;1.88;;;;;;;18.59;68.59;99315.41;5094392;28;20052;-62
2022/09/14 07:36:13;;;;;;;5.03;2.03;;;;;;;18.54;68.21;99315.78;5093252;28;20055;-62
2022/09/14 07:38:40;;;;;;;2.70;1.60;;;;;;;18.51;69.00;99314.56;5098146;28;20048;-62
2022/09/14 07:41:09;;;;;;;4.88;1.90;;;;;;;18.53;68.70;99312.16;5098567;28;20475;-62
2022/09/14 07:43:36;;;;;;;3.38;1.58;;;;;;;18.56;68.59;99317.03;5099556;28;20048;-61
2022/09/14 07:46:04;;;;;;;4.45;2.00;;;;;;;18.57;68.49;99312.97;5103199;28;20066;-62
2022/09/14 07:48:35;;;;;;;5.80;2.10;;;;;;;18.57;68.63;99318.63;5092191;28;20052;-63
2022/09/14 07:51:03;;;;;;;5.85;2.22;;;;;;;18.56;68.93;99319.84;5094936;28;20048;-61
2022/09/14 07:53:31;;;;;;;4.60;1.93;;;;;;;18.52;68.44;99321.84;5093239;28;20058;-62
2022/09/14 07:56:00;;;;;;;5.00;2.30;;;;;;;18.57;68.39;99318.63;5097076;28;20485;-62
2022/09/14 07:58:27;;;;;;;3.45;1.92;;;;;;;18.56;68.62;99319.84;5099001;28;20048;-62
2022/09/14 08:00:58;;;;;;;4.43;1.70;;;;;;;18.53;68.70;99314.97;5102879;28;20059;-62
2022/09/14 08:03:25;;;;;;;4.78;2.20;;;;;;;18.53;68.75;99314.97;5098613;28;20047;-62
2022/09/14 08:06:00;;;;;;;4.75;2.50;;;;;;;18.61;69.06;99310.97;5099551;28;20391;-62
2022/09/14 08:08:31;;;;;;;5.60;2.38;;;;;;;18.64;69.75;99310.19;5096918;28;20203;-62
2022/09/14 08:11:05;;;;;;;5.03;2.63;;;;;;;18.71;68.61;99309.41;5099734;28;20058;-62
2022/09/14 08:13:33;;;;;;;7.88;3.15;;;;;;;18.75;68.21;99298.13;5104397;28;20043;-62
2022/09/14 08:16:00;;;;;;;6.47;3.28;;;;;;;18.79;68.70;99299.81;5107059;28;20056;-62
2022/09/14 08:18:28;;;;;;;6.13;2.40;;;;;;;18.84;68.63;99290.94;5099761;28;20075;-62
2022/09/14 08:20:56;;;;;;;5.32;2.55;;;;;;;18.89;68.36;99291.75;5097473;28;20667;-62
2022/09/14 08:23:25;;;;;;;6.38;2.88;;;;;;;18.93;68.70;99287.72;5093558;28;20056;-62
2022/09/14 08:25:52;;;;;;;3.78;2.40;;;;;;;18.95;68.68;99292.97;5100234;28;20043;-62
2022/09/14 08:28:19;;;;;;;3.65;2.33;;;;;;;18.98;68.22;99290.16;5103654;28;20051;-62
2022/09/14 08:30:46;;;;;;;6.97;2.95;;;;;;;19.04;67.78;99288.53;5099304;28;20423;-62
2022/09/14 08:33:14;;;;;;;5.55;2.58;;;;;;;19.06;68.41;99288.16;5107908;28;20052;-61
2022/09/14 08:35:44;;;;;;;5.63;3.05;;;;;;;19.06;67.85;99286.13;5096866;28;20044;-62
2022/09/14 08:38:11;;;;;;;4.50;2.80;;;;;;;19.05;68.05;99284.53;5100938;28;20108;-62
2022/09/14 08:40:45;;;;;;;4.05;2.65;;;;;;;19.03;68.47;99286.94;5109103;28;20058;-62
2022/09/14 08:43:14;;;;;;;5.53;2.95;;;;;;;18.93;68.59;99279.25;5102059;28;20400;-62
2022/09/14 08:45:43;;;;;;;5.93;2.50;;;;;;;18.92;68.32;99282.47;5098418;28;20071;-62
2022/09/14 08:48:18;;;;;;;4.45;2.28;;;;;;;18.78;67.34;99286.06;5114783;28;20048;-62
2022/09/14 08:50:46;;;;;;;5.43;2.20;;;;;;;18.79;67.90;99285.69;5098724;28;20478;-62
2022/09/14 08:53:13;;;;;;;4.00;2.13;;;;;;;18.84;68.79;99282.47;5095099;28;20066;-61
2022/09/14 08:55:46;;;;;;;4.30;2.25;;;;;;;18.91;67.84;99286.50;5093716;27;20052;-62
2022/09/14 08:58:21;;;;;;;4.35;1.88;;;;;;;18.92;67.37;99276.81;5099749;28;20081;-62
2022/09/14 09:00:53;;;;;;;4.43;2.08;;;;;;;18.92;67.43;99290.94;5103106;28;20054;-62
2022/09/14 09:03:41;;;;;;;2.75;1.80;;;;;;;18.96;67.35;99286.94;5101522;28;20047;-62
2022/09/14 09:06:15;;;;;;;5.50;2.47;;;;;;;18.99;66.83;99288.94;5103224;28;20048;-62
2022/09/14 09:08:53;;;;;;;4.55;2.22;;;;;;;18.98;67.06;99289.34;5101604;28;20044;-62
2022/09/14 09:11:27;;;;;;;4.80;2.17;;;;;;;18.95;67.61;99288.13;5101545;28;20048;-62
2022/09/14 09:13:56;;;;;;;3.40;2.20;;;;;;;18.94;67.68;99283.72;5103859;28;20412;-62
2022/09/14 09:16:26;;;;;;;3.33;2.08;;;;;;;18.98;68.16;99290.16;5104583;28;20479;-61
2022/09/14 09:18:59;;;;;;;3.63;1.80;;;;;;;18.90;67.28;99288.53;5094839;28;20515;-62
2022/09/14 09:21:30;;;;;;;5.25;1.83;;;;;;;18.89;67.06;99280.47;5100369;28;20063;-62
2022/09/14 09:24:15;;;;;;;2.42;1.30;;;;;;;18.86;67.41;99288.53;5097147;28;20399;-64
2022/09/14 09:26:43;;;;;;;3.97;1.60;;;;;;;18.77;66.06;99282.44;5103659;28;20476;-62
2022/09/14 09:29:11;;;;;;;3.93;1.40;;;;;;;18.75;66.26;99281.19;5096642;28;20044;-62
2022/09/14 09:31:43;;;;;;;2.38;1.48;;;;;;;18.71;65.48;99288.84;5100809;28;21037;-61
2022/09/14 09:34:13;;;;;;;3.13;1.40;;;;;;;18.73;65.95;99280.78;5093321;28;20055;-61
2022/09/14 09:36:45;;;;;;;3.78;1.52;;;;;;;18.72;65.87;99280.00;5101427;28;20047;-61
2022/09/14 09:39:12;;;;;;;3.85;1.48;;;;;;;18.74;66.09;99288.06;5093924;28;20052;-62
2022/09/14 09:41:46;;;;;;;3.28;1.60;;;;;;;18.72;65.32;99285.63;5098628;28;20059;-62
2022/09/14 09:44:14;;;;;;;3.40;1.77;;;;;;;18.72;65.37;99287.66;5095489;28;20064;-61
2022/09/14 09:46:47;;;;;;;3.45;1.42;;;;;;;18.66;65.59;99282.38;5104834;28;20056;-62
2022/09/14 09:49:18;;;;;;;3.30;1.50;;;;;;;18.64;66.76;99276.31;5105819;28;20051;-62
2022/09/14 09:51:46;;;;;;;3.50;1.38;;;;;;;18.65;66.22;99275.13;5106411;28;20056;-63
2022/09/14 09:54:28;;;;;;;3.55;1.67;;;;;;;18.65;66.22;99274.34;5112360;27;20058;-61
2022/09/14 09:56:59;;;;;;;5.63;1.73;;;;;;;18.62;67.32;99266.66;5108631;28;20052;-62
2022/09/14 09:59:30;;;;;;;3.60;1.55;;;;;;;18.67;66.92;99274.75;5104123;28;20047;-62
2022/09/14 10:02:22;;;;;;;3.20;1.60;;;;;;;18.65;67.04;99275.13;5106104;28;20067;-62
2022/09/14 10:04:59;;;;;;;3.60;1.75;;;;;;;18.67;66.68;99269.09;5104497;28;20052;-62
2022/09/14 10:07:27;;;;;;;5.25;2.20;;;;;;;18.65;66.41;99277.97;5102138;28;20527;-62
2022/09/14 10:09:59;;;;;;;4.72;1.77;;;;;;;18.61;67.20;99274.31;5099938;28;20047;-62
2022/09/14 10:12:29;;;;;;;4.43;2.03;;;;;;;18.63;66.78;99277.56;5101520;28;20044;-62
2022/09/14 10:15:24;;;;;;;2.72;1.40;;;;;;;18.64;67.16;99284.78;5096557;28;20055;-62
2022/09/14 10:18:01;;;;;;;3.63;1.88;;;;;;;18.64;67.80;99276.31;5076418;28;20059;-62
2022/09/14 10:20:29;;;;;;;2.65;1.70;;;;;;;18.53;67.96;99274.69;5093396;28;20365;-62
2022/09/14 10:22:56;;;;;;;2.95;1.80;;;;;;;18.54;67.96;99282.78;5104241;28;20058;-62
2022/09/14 10:25:26;;;;;;;3.35;2.10;;;;;;;18.51;67.98;99283.56;5105414;28;20048;-61
2022/09/14 10:28:00;;;;;;;5.65;2.00;;;;;;;18.53;68.81;99283.97;5097047;28;20063;-62
2022/09/14 10:30:30;;;;;;;3.25;2.13;;;;;;;18.55;68.73;99283.56;5097432;28;20052;-62
2022/09/14 10:33:01;;;;;;;4.38;2.47;;;;;;;18.40;68.39;99280.69;5098774;28;20056;-62
2022/09/14 10:35:42;;;;;;;3.83;1.90;;;;;;;18.34;68.59;99276.63;5098097;28;20048;-62
2022/09/14 10:38:31;;;;;;;4.35;1.77;;;;;;;18.29;68.92;99276.19;5097410;28;20458;-62
2022/09/14 10:41:10;;;;;;;3.83;2.08;;;;;;;18.35;69.24;99260.53;5090051;28;20168;-63
2022/09/14 10:44:05;;;;;;;3.22;1.90;;;;;;;18.43;68.50;99254.50;5093537;28;20066;-63
2022/09/14 10:46:40;;;;;;;3.63;1.88;;;;;;;18.47;69.09;99260.16;5059838;28;20048;-62
2022/09/14 10:49:25;;;;;;;3.47;2.17;;;;;;;18.48;68.33;99256.16;5060030;28;20409;-63
2022/09/14 10:52:02;;;;;;;3.65;1.75;;;;;;;18.39;68.74;99264.97;5055842;28;20052;-63
2022/09/14 10:54:56;;;;;;;3.45;1.70;;;;;;;18.40;68.70;99268.63;5067384;28;20052;-63
2022/09/14 10:57:34;;;;;;;3.85;1.70;;;;;;;18.38;68.09;99271.03;5066417;28;20429;-63
2022/09/14 11:00:08;;;;;;;2.53;1.35;;;;;;;18.40;68.37;99262.97;5067458;28;20049;-62
2022/09/14 11:03:07;;;;;;;2.55;1.20;;;;;;;18.48;68.91;99249.69;5058573;28;20044;-62
2022/09/14 11:05:38;;;;;;;2.63;1.20;;;;;;;18.55;68.54;99256.16;5054341;28;20060;-61
2022/09/14 11:08:15;;;;;;;2.35;1.40;;;;;;;18.56;67.84;99263.44;5055668;28;20044;-63
2022/09/14 11:10:56;;;;;;;1.98;1.10;;;;;;;18.54;67.14;99270.66;5069610;28;20055;-62
2022/09/14 11:13:47;;;;;;;2.42;1.30;;;;;;;18.56;67.60;99265.44;5061211;28;20044;-63
2022/09/14 11:16:31;;;;;;;2.10;1.30;;;;;;;18.51;68.24;99263.81;5062970;28;20505;-63
2022/09/14 11:19:13;;;;;;;2.88;1.50;;;;;;;18.52;68.33;99268.25;5052009;28;20060;-63
2022/09/14 11:21:50;;;;;;;1.70;1.27;;;;;;;18.59;67.99;99267.47;5054734;28;20052;-63
2022/09/14 11:24:23;;;;;;;2.10;1.30;;;;;;;18.66;67.56;99257.00;5059755;28;20059;-63
2022/09/14 11:27:00;;;;;;;2.85;1.30;;;;;;;18.70;67.88;99256.22;5058365;28;20048;-63
2022/09/14 11:29:31;;;;;;;2.53;1.30;;;;;;;18.71;67.38;99255.81;5062851;28;20049;-62
2022/09/14 11:32:05;;;;;;;2.58;1.45;;;;;;;18.79;67.48;99251.00;5058713;28;20055;-63
2022/09/14 11:34:38;;;;;;;3.03;1.40;;;;;;;18.84;67.75;99254.25;5071465;28;20064;-62
2022/09/14 11:37:10;;;;;;;3.88;1.55;;;;;;;18.89;67.28;99253.06;5060683;28;20068;-62
2022/09/14 11:39:42;;;;;;;2.20;1.38;;;;;;;18.98;66.74;99245.00;5065257;28;20056;-63
2022/09/14 11:42:14;;;;;;;3.22;1.40;;;;;;;19.05;66.42;99250.66;5075508;28;20055;-63
2022/09/14 11:44:43;;;;;;;2.67;1.25;;;;;;;19.12;66.07;99251.88;5076185;28;20052;-63
2022/09/14 11:47:16;;;;;;;2.22;1.20;;;;;;;19.23;66.03;99244.19;5103749;28;20071;-63
2022/09/14 11:49:54;;;;;;;1.92;1.05;;;;;;;19.25;64.98;99242.59;5104091;28;20162;-62
2022/09/14 11:52:22;;;;;;;2.60;1.00;;;;;;;19.30;65.68;99235.75;5106295;28;20051;-63
2022/09/14 11:54:51;;;;;;;3.67;1.20;;;;;;;19.33;64.98;99243.41;5110588;27;20052;-63
2022/09/14 11:57:20;;;;;;;3.45;1.30;;;;;;;19.36;65.06;99231.31;5115018;28;20054;-60
2022/09/14 11:59:50;;;;;;;2.03;1.13;;;;;;;19.32;64.96;99224.84;5098192;28;20047;-63